createdAt,value
2022-08-08T00:00:59.971Z,0.50
2022-08-08T00:04:16.260Z,0.50
2022-08-08T00:08:19.605Z,0.60
2022-08-08T00:12:03.045Z,0.80
2022-08-08T00:15:57.103Z,0.70
2022-08-08T00:19:40.433Z,0.60
2022-08-08T00:23:43.449Z,0.60
2022-08-08T00:27:12.333Z,0.60
2022-08-08T00:31:00.623Z,0.70
2022-08-08T00:35:00.634Z,0.80
2022-08-08T00:38:54.476Z,0.90
2022-08-08T00:42:41.866Z,0.90
2022-08-08T00:46:23.009Z,0.70
2022-08-08T00:50:07.267Z,0.60
2022-08-08T00:54:16.948Z,0.60
2022-08-08T00:58:00.824Z,0.90
2022-08-08T01:01:38.130Z,1.00
2022-08-08T01:06:16.261Z,0.90
2022-08-08T01:10:21.511Z,1.00
2022-08-08T01:14:53.149Z,0.80
2022-08-08T01:18:53.843Z,0.90
2022-08-08T01:22:37.177Z,0.90
2022-08-08T01:27:07.011Z,1.30
2022-08-08T01:31:05.987Z,1.00
2022-08-08T01:35:29.818Z,1.20
2022-08-08T01:39:05.447Z,1.20
2022-08-08T01:42:47.074Z,1.00
2022-08-08T01:46:41.461Z,1.00
2022-08-08T01:50:38.431Z,1.10
2022-08-08T01:55:26.945Z,1.00
2022-08-08T01:58:39.797Z,0.90
2022-08-08T02:02:53.630Z,0.90
2022-08-08T02:07:05.454Z,1.40
2022-08-08T02:11:23.800Z,1.10
2022-08-08T02:15:14.128Z,1.00
2022-08-08T02:19:00.491Z,1.30
2022-08-08T02:22:57.170Z,1.10
2022-08-08T02:26:34.696Z,1.30
2022-08-08T02:30:21.317Z,1.30
2022-08-08T02:34:32.764Z,1.50
2022-08-08T02:38:14.892Z,1.20
2022-08-08T02:42:03.962Z,1.20
2022-08-08T02:45:31.772Z,1.10
2022-08-08T02:49:58.402Z,1.30
2022-08-08T02:54:00.426Z,1.60
2022-08-08T02:57:51.274Z,1.30
2022-08-08T03:02:03.635Z,1.20
2022-08-08T03:06:03.953Z,1.40
2022-08-08T03:10:31.754Z,0.90
2022-08-08T03:15:58.109Z,1.00
2022-08-08T03:18:34.003Z,1.30
2022-08-08T03:22:38.342Z,1.30
2022-08-08T03:25:58.631Z,1.20
2022-08-08T03:29:55.614Z,1.30
2022-08-08T03:33:55.788Z,1.00
2022-08-08T03:37:59.904Z,0.70
2022-08-08T03:40:55.394Z,1.40
2022-08-08T03:44:35.261Z,0.80
2022-08-08T03:48:10.006Z,0.90
2022-08-08T03:51:51.235Z,0.70
2022-08-08T03:55:57.951Z,1.00
2022-08-08T03:59:07.741Z,0.80
2022-08-08T04:03:11.663Z,0.90
2022-08-08T04:06:35.975Z,0.80
2022-08-08T04:10:12.027Z,0.70
2022-08-08T04:14:03.781Z,1.00
2022-08-08T04:17:58.120Z,0.80
2022-08-08T04:21:19.860Z,1.00
2022-08-08T04:24:53.849Z,0.90
2022-08-08T04:28:37.152Z,0.90
2022-08-08T04:32:07.353Z,1.00
2022-08-08T04:35:50.794Z,0.80
2022-08-08T04:40:03.379Z,0.90
2022-08-08T04:43:31.539Z,0.70
2022-08-08T04:47:26.037Z,0.80
2022-08-08T04:50:50.271Z,0.90
2022-08-08T04:54:45.475Z,1.20
2022-08-08T04:58:14.518Z,0.60
2022-08-08T05:01:49.989Z,0.80
2022-08-08T05:05:45.771Z,1.10
2022-08-08T05:09:08.769Z,0.70
2022-08-08T05:13:00.564Z,0.90
2022-08-08T05:16:51.673Z,0.80
2022-08-08T05:20:20.090Z,0.90
2022-08-08T05:23:59.211Z,0.70
2022-08-08T05:27:41.347Z,0.90
2022-08-08T05:32:03.371Z,0.80
2022-08-08T05:35:14.561Z,0.60
2022-08-08T05:39:09.619Z,0.90
2022-08-08T05:42:37.838Z,0.80
2022-08-08T05:46:28.121Z,0.80
2022-08-08T05:49:54.053Z,0.90
2022-08-08T05:54:24.180Z,1.00
2022-08-08T05:57:16.192Z,0.50
2022-08-08T06:01:01.646Z,1.20
2022-08-08T06:04:35.997Z,1.00
2022-08-08T06:08:33.200Z,0.90
2022-08-08T06:12:01.114Z,0.80
2022-08-08T06:15:51.021Z,0.80
2022-08-08T06:19:56.347Z,0.80
2022-08-08T06:23:18.062Z,0.80
2022-08-08T06:27:39.508Z,0.70
2022-08-08T06:31:04.564Z,0.70
2022-08-08T06:34:39.519Z,0.50
2022-08-08T06:38:20.949Z,0.50
2022-08-08T06:41:57.924Z,0.60
2022-08-08T06:45:33.180Z,0.60
2022-08-08T06:49:05.939Z,0.60
2022-08-08T06:52:42.945Z,0.50
2022-08-08T06:56:19.711Z,0.60
2022-08-08T07:00:10.742Z,0.70
2022-08-08T07:04:36.881Z,0.50
2022-08-08T07:08:09.534Z,0.70
2022-08-08T07:11:58.222Z,0.70
2022-08-08T07:16:05.126Z,0.70
2022-08-08T07:19:33.871Z,0.60
2022-08-08T07:23:07.926Z,0.90
2022-08-08T07:26:41.122Z,0.50
2022-08-08T07:30:18.268Z,0.60
2022-08-08T07:34:26.778Z,0.60
2022-08-08T07:38:18.304Z,0.90
2022-08-08T07:42:03.471Z,0.50
2022-08-08T07:45:34.787Z,0.50
2022-08-08T07:49:13.825Z,0.60
2022-08-08T07:52:55.262Z,0.50
2022-08-08T07:56:35.521Z,0.50
2022-08-08T08:00:16.270Z,0.70
2022-08-08T08:04:13.985Z,0.60
2022-08-08T08:07:43.279Z,0.70
2022-08-08T08:11:23.317Z,0.80
2022-08-08T08:15:05.170Z,0.70
2022-08-08T08:18:55.684Z,0.80
2022-08-08T08:22:31.214Z,0.70
2022-08-08T08:25:59.950Z,0.60
2022-08-08T08:29:35.643Z,0.40
2022-08-08T08:33:31.342Z,0.60
2022-08-08T08:36:56.752Z,0.40
2022-08-08T08:40:34.685Z,0.70
2022-08-08T08:44:30.620Z,0.80
2022-08-08T08:47:58.674Z,0.50
2022-08-08T08:51:41.617Z,0.50
2022-08-08T08:55:39.277Z,0.30
2022-08-08T08:59:04.191Z,0.50
2022-08-08T09:02:43.982Z,0.60
2022-08-08T09:06:34.174Z,0.80
2022-08-08T09:10:21.376Z,0.50
2022-08-08T09:13:45.382Z,0.60
2022-08-08T09:17:26.796Z,0.60
2022-08-08T09:22:00.860Z,0.80
2022-08-08T09:25:07.388Z,0.50
2022-08-08T09:28:44.394Z,0.50
2022-08-08T09:32:39.274Z,0.60
2022-08-08T09:36:23.482Z,0.40
2022-08-08T09:39:59.958Z,0.60
2022-08-08T09:44:06.583Z,0.60
2022-08-08T09:48:04.002Z,0.60
2022-08-08T09:51:41.486Z,0.70
2022-08-08T09:56:03.236Z,0.60
2022-08-08T10:00:02.336Z,0.50
2022-08-08T10:03:15.925Z,0.60
2022-08-08T10:07:13.890Z,0.70
2022-08-08T10:11:01.116Z,0.50
2022-08-08T10:14:35.484Z,0.50
2022-08-08T10:18:10.409Z,0.60
2022-08-08T10:21:42.255Z,0.90
2022-08-08T10:25:20.898Z,0.60
2022-08-08T10:28:58.467Z,0.60
2022-08-08T10:32:37.683Z,0.60
2022-08-08T10:36:09.263Z,0.70
2022-08-08T10:40:16.020Z,0.70
2022-08-08T10:43:43.014Z,0.40
2022-08-08T10:47:18.920Z,0.80
2022-08-08T10:51:12.575Z,0.40
2022-08-08T10:54:40.251Z,0.50
2022-08-08T10:58:11.930Z,0.50
2022-08-08T11:01:54.588Z,0.80
2022-08-08T11:05:38.553Z,0.60
2022-08-08T11:09:21.830Z,0.60
2022-08-08T11:12:57.890Z,0.50
2022-08-08T11:16:36.396Z,0.60
2022-08-08T11:20:29.195Z,0.50
2022-08-08T11:24:02.430Z,0.60
2022-08-08T11:27:47.646Z,0.50
2022-08-08T11:31:43.204Z,0.70
2022-08-08T11:35:37.779Z,0.50
2022-08-08T11:39:23.197Z,0.80
2022-08-08T11:42:45.384Z,0.60
2022-08-08T11:46:24.803Z,0.40
2022-08-08T11:50:23.185Z,0.60
2022-08-08T11:53:59.045Z,0.60
2022-08-08T11:57:30.243Z,0.50
2022-08-08T12:01:12.310Z,0.50
2022-08-08T12:04:39.975Z,0.40
2022-08-08T12:08:30.069Z,0.40
2022-08-08T12:11:52.930Z,0.60
2022-08-08T12:15:49.812Z,0.60
2022-08-08T12:19:37.432Z,0.60
2022-08-08T12:23:13.987Z,0.40
2022-08-08T12:26:54.385Z,0.40
2022-08-08T12:30:31.858Z,0.50
2022-08-08T12:34:06.498Z,0.60
2022-08-08T12:38:01.309Z,0.40
2022-08-08T12:41:35.107Z,0.50
2022-08-08T12:45:59.128Z,0.50
2022-08-08T12:52:54.008Z,0.50
2022-08-08T12:56:34.031Z,0.40
2022-08-08T13:00:05.093Z,1.00
2022-08-08T13:03:35.191Z,0.40
2022-08-08T13:07:16.770Z,0.50
2022-08-08T13:11:21.021Z,0.40
2022-08-08T13:14:52.835Z,0.70
2022-08-08T13:18:22.679Z,0.50
2022-08-08T13:22:18.216Z,0.60
2022-08-08T13:25:50.308Z,0.50
2022-08-08T13:29:23.270Z,0.60
2022-08-08T13:33:06.627Z,0.90
2022-08-08T13:36:55.810Z,0.50
2022-08-08T13:40:36.347Z,0.60
2022-08-08T13:44:03.307Z,0.50
2022-08-08T13:47:40.330Z,0.80
2022-08-08T13:51:37.897Z,0.40
2022-08-08T13:55:06.370Z,0.60
2022-08-08T13:58:56.090Z,0.60
2022-08-08T14:02:21.583Z,0.40
2022-08-08T14:06:09.188Z,0.50
2022-08-08T14:10:04.578Z,0.60
2022-08-08T14:13:33.265Z,0.40
2022-08-08T14:17:22.100Z,0.60
2022-08-08T14:21:02.376Z,0.50
2022-08-08T14:24:49.719Z,0.40
2022-08-08T14:28:11.570Z,0.60
2022-08-08T14:32:10.672Z,0.50
2022-08-08T14:35:35.615Z,0.60
2022-08-08T14:39:47.939Z,0.60
2022-08-08T14:43:31.565Z,0.60
2022-08-08T14:47:20.915Z,0.70
2022-08-08T14:51:06.489Z,0.60
2022-08-08T14:54:49.178Z,0.50
2022-08-08T14:58:16.582Z,0.70
2022-08-08T15:01:49.742Z,0.60
2022-08-08T15:05:42.831Z,0.60
2022-08-08T15:09:07.723Z,0.40
2022-08-08T15:12:48.055Z,0.50
2022-08-08T15:16:42.611Z,0.60
2022-08-08T15:20:12.439Z,0.60
2022-08-08T15:24:01.831Z,0.40
2022-08-08T15:28:05.248Z,1.00
2022-08-08T15:31:07.674Z,0.50
2022-08-08T15:34:44.791Z,0.70
2022-08-08T15:38:49.515Z,0.60
2022-08-08T15:42:32.559Z,0.50
2022-08-08T15:46:14.396Z,0.50
2022-08-08T15:49:42.795Z,0.70
2022-08-08T15:53:49.239Z,0.50
2022-08-08T15:57:13.822Z,0.50
2022-08-08T16:01:08.098Z,0.40
2022-08-08T16:04:29.949Z,0.50
2022-08-08T16:08:12.255Z,0.40
2022-08-08T16:13:11.972Z,0.40
2022-08-08T16:15:27.448Z,0.70
2022-08-08T16:19:23.485Z,0.60
2022-08-08T16:23:04.979Z,0.70
2022-08-08T16:26:36.058Z,0.60
2022-08-08T16:30:08.776Z,0.70
2022-08-08T16:33:42.790Z,0.40
2022-08-08T16:37:23.432Z,0.70
2022-08-08T16:40:57.229Z,0.50
2022-08-08T16:44:34.680Z,0.70
2022-08-08T16:48:13.482Z,0.70
2022-08-08T16:55:02.049Z,0.60
2022-08-08T16:55:55.081Z,0.60
2022-08-08T16:59:25.688Z,0.70
2022-08-08T17:03:08.364Z,0.60
2022-08-08T17:06:44.705Z,0.60
2022-08-08T17:10:21.446Z,1.20
2022-08-08T17:14:00.917Z,1.20
2022-08-08T17:18:03.184Z,0.60
2022-08-08T17:21:26.015Z,0.60
2022-08-08T17:25:04.532Z,0.50
2022-08-08T17:28:39.513Z,0.70
2022-08-08T17:34:34.854Z,0.60
2022-08-08T17:36:22.808Z,0.70
2022-08-08T17:40:06.310Z,0.70
2022-08-08T17:44:01.130Z,0.70
2022-08-08T17:47:40.653Z,1.20
2022-08-08T17:51:02.833Z,1.40
2022-08-08T17:54:39.663Z,1.10
2022-08-08T17:58:35.386Z,1.50
2022-08-08T18:02:04.724Z,1.20
2022-08-08T18:05:48.638Z,1.70
2022-08-08T18:09:13.309Z,2.40
2022-08-08T18:13:08.948Z,1.50
2022-08-08T18:16:31.182Z,1.90
2022-08-08T18:20:37.164Z,2.40
2022-08-08T18:24:17.246Z,2.70
2022-08-08T18:27:45.051Z,3.70
2022-08-08T18:31:40.538Z,3.70
2022-08-08T18:35:20.863Z,4.00
2022-08-08T18:38:42.528Z,2.40
2022-08-08T18:42:38.389Z,2.10
2022-08-08T18:46:56.904Z,2.20
2022-08-08T18:50:00.098Z,1.50
2022-08-08T18:53:50.879Z,1.60
2022-08-08T18:57:42.180Z,1.40
2022-08-08T19:02:25.966Z,1.20
2022-08-08T19:05:06.322Z,1.30
2022-08-08T19:08:42.423Z,1.40
2022-08-08T19:12:19.401Z,1.20
2022-08-08T19:16:19.101Z,0.90
2022-08-08T19:20:03.280Z,1.00
2022-08-08T19:23:46.844Z,0.90
2022-08-08T19:27:10.949Z,0.90
2022-08-08T19:31:07.370Z,1.00
2022-08-08T19:34:51.326Z,1.00
2022-08-08T19:38:17.232Z,1.10
2022-08-08T19:41:51.874Z,1.40
2022-08-08T19:45:59.915Z,0.90
2022-08-08T19:49:12.156Z,1.30
2022-08-08T19:52:59.223Z,0.70
2022-08-08T19:56:25.703Z,0.90
2022-08-08T20:00:28.916Z,1.20
2022-08-08T20:04:01.438Z,0.90
2022-08-08T20:08:31.254Z,1.10
2022-08-08T20:11:33.170Z,1.20
2022-08-08T20:14:55.661Z,1.20
2022-08-08T20:18:37.416Z,1.00
2022-08-08T20:22:43.976Z,1.20
2022-08-08T20:26:06.589Z,1.40
2022-08-08T20:29:55.936Z,1.10
2022-08-08T20:34:27.685Z,1.10
2022-08-08T20:37:23.603Z,0.80
2022-08-08T20:41:26.484Z,1.20
2022-08-08T20:45:09.344Z,1.30
2022-08-08T20:48:36.813Z,1.20
2022-08-08T20:52:10.781Z,0.70
2022-08-08T20:55:51.218Z,1.20
2022-08-08T20:59:24.852Z,0.80
2022-08-08T21:03:03.515Z,0.90
2022-08-08T21:06:53.226Z,1.00
2022-08-08T21:10:17.522Z,1.00
2022-08-08T21:13:54.069Z,0.90
2022-08-08T21:17:55.850Z,1.10
2022-08-08T21:21:19.781Z,1.10
2022-08-08T21:25:02.793Z,0.90
2022-08-08T21:28:39.527Z,1.20
2022-08-08T21:32:24.852Z,1.00
2022-08-08T21:36:13.894Z,1.00
2022-08-08T21:39:54.513Z,1.10
2022-08-08T21:43:18.333Z,1.00
2022-08-08T21:48:03.730Z,1.10
2022-08-08T21:50:37.843Z,1.60
2022-08-08T21:54:37.474Z,1.90
2022-08-08T21:58:05.402Z,1.10
2022-08-08T22:02:01.108Z,1.70
2022-08-08T22:05:27.909Z,1.30
2022-08-08T22:09:08.521Z,1.70
2022-08-08T22:12:44.203Z,2.40
2022-08-08T22:16:37.167Z,2.00
2022-08-08T22:20:23.750Z,2.30
2022-08-08T22:23:51.324Z,1.90
2022-08-08T22:27:45.512Z,2.10
2022-08-08T22:31:05.889Z,3.10
2022-08-08T22:34:42.587Z,2.30
2022-08-08T22:38:21.029Z,1.40
2022-08-08T22:41:56.088Z,1.50
2022-08-08T22:45:52.426Z,1.10
2022-08-08T22:49:19.877Z,1.10
2022-08-08T22:54:27.944Z,2.30
2022-08-08T22:56:52.788Z,2.90
2022-08-08T23:00:31.140Z,2.40
2022-08-08T23:04:06.347Z,2.10
2022-08-08T23:07:51.085Z,2.40
2022-08-08T23:11:21.167Z,2.50
2022-08-08T23:15:10.674Z,3.10
2022-08-08T23:18:34.178Z,2.40
2022-08-08T23:22:11.039Z,2.90
2022-08-08T23:26:06.206Z,2.70
2022-08-08T23:29:54.998Z,3.30
2022-08-08T23:33:20.987Z,3.80
2022-08-08T23:37:02.677Z,3.60
2022-08-08T23:40:58.473Z,4.30
2022-08-08T23:44:39.593Z,3.50
2022-08-08T23:49:02.363Z,3.90
2022-08-08T23:52:06.306Z,4.10
2022-08-08T23:55:49.350Z,4.10
2022-08-08T23:59:17.158Z,3.40
